EmailTwitter


Observations de surface / France / LFMP (07747)

Régions: Québec | Canada | États-Unis | Europe | France | UK | Ailleurs
Station
Affichage
Infos & localisation pour LFMP (07747) | Aide pour décoder les METARs

Observations prises le 2020-09-25 à 11H00 UTC à PERPIGNAN/RIVESA, FR (LFMP)

Température: 16.0 Celsius

Point de rosée: 5.0 Celsius

Humidité relative: 48%

Facteur vent: 13.

Facteur vent (rafales): 12.

Vents: Ouest-nord-ouest à 78 km/h ou 42 noeuds.

Rafale du vent: 109 km/h ou 59 noeuds.

Pression au niveau moyen de la mer: 100.70 kilopascals.

Observation METAR:

LFMP 251100Z AUTO 29042G59KT CAVOK 16/05 Q1007 NOSIG=